sensor_id;sensor_type;location;lat;lon;timestamp;P1;durP1;ratioP1;P2;durP2;ratioP2
20792;SDS011;10556;-33.662;151.094;2023-02-02T00:02:13;7.33;;;3.33;;
20792;SDS011;10556;-33.662;151.094;2023-02-02T00:07:14;5.97;;;3.03;;
20792;SDS011;10556;-33.662;151.094;2023-02-02T00:12:15;7.97;;;3.20;;
20792;SDS011;10556;-33.662;151.094;2023-02-02T00:17:19;5.80;;;3.35;;
20792;SDS011;10556;-33.662;151.094;2023-02-02T00:22:20;6.32;;;3.70;;
20792;SDS011;10556;-33.662;151.094;2023-02-02T00:27:21;5.63;;;3.90;;
20792;SDS011;10556;-33.662;151.094;2023-02-02T00:32:24;7.05;;;3.80;;
20792;SDS011;10556;-33.662;151.094;2023-02-02T00:37:25;8.52;;;4.15;;
20792;SDS011;10556;-33.662;151.094;2023-02-02T00:42:27;6.53;;;4.28;;
20792;SDS011;10556;-33.662;151.094;2023-02-02T00:47:30;7.75;;;4.43;;
20792;SDS011;10556;-33.662;151.094;2023-02-02T00:52:31;6.60;;;4.80;;
20792;SDS011;10556;-33.662;151.094;2023-02-02T00:57:32;6.85;;;4.80;;
20792;SDS011;10556;-33.662;151.094;2023-02-02T01:02:35;6.32;;;4.43;;
20792;SDS011;10556;-33.662;151.094;2023-02-02T01:07:36;7.20;;;3.85;;
20792;SDS011;10556;-33.662;151.094;2023-02-02T01:12:38;9.02;;;3.95;;
20792;SDS011;10556;-33.662;151.094;2023-02-02T01:17:41;7.25;;;4.57;;
20792;SDS011;10556;-33.662;151.094;2023-02-02T01:22:42;7.43;;;4.30;;
20792;SDS011;10556;-33.662;151.094;2023-02-02T01:27:43;4.78;;;3.92;;
20792;SDS011;10556;-33.662;151.094;2023-02-02T01:32:46;5.30;;;4.00;;
20792;SDS011;10556;-33.662;151.094;2023-02-02T01:37:48;4.68;;;3.60;;
20792;SDS011;10556;-33.662;151.094;2023-02-02T01:42:49;5.55;;;3.90;;
20792;SDS011;10556;-33.662;151.094;2023-02-02T01:47:53;4.22;;;3.42;;
20792;SDS011;10556;-33.662;151.094;2023-02-02T01:52:55;6.18;;;2.97;;
20792;SDS011;10556;-33.662;151.094;2023-02-02T01:57:58;5.80;;;3.28;;
20792;SDS011;10556;-33.662;151.094;2023-02-02T02:03:03;4.28;;;3.15;;
20792;SDS011;10556;-33.662;151.094;2023-02-02T02:08:07;5.07;;;2.65;;
20792;SDS011;10556;-33.662;151.094;2023-02-02T02:13:10;2.67;;;2.22;;
20792;SDS011;10556;-33.662;151.094;2023-02-02T02:18:17;4.65;;;2.65;;
20792;SDS011;10556;-33.662;151.094;2023-02-02T02:23:29;2.53;;;2.00;;
20792;SDS011;10556;-33.662;151.094;2023-02-02T02:28:51;3.97;;;2.72;;
20792;SDS011;10556;-33.662;151.094;2023-02-02T02:34:02;2.95;;;2.05;;
20792;SDS011;10556;-33.662;151.094;2023-02-02T02:39:09;3.97;;;2.60;;
20792;SDS011;10556;-33.662;151.094;2023-02-02T02:44:13;5.10;;;3.00;;
20792;SDS011;10556;-33.662;151.094;2023-02-02T02:49:17;2.63;;;2.42;;
20792;SDS011;10556;-33.662;151.094;2023-02-02T02:54:19;2.33;;;2.00;;
20792;SDS011;10556;-33.662;151.094;2023-02-02T02:59:23;3.50;;;2.30;;
20792;SDS011;10556;-33.662;151.094;2023-02-02T03:04:30;4.03;;;2.53;;
20792;SDS011;10556;-33.662;151.094;2023-02-02T03:09:34;3.08;;;2.70;;
20792;SDS011;10556;-33.662;151.094;2023-02-02T03:14:36;2.40;;;2.20;;
20792;SDS011;10556;-33.662;151.094;2023-02-02T03:19:39;2.95;;;2.53;;
20792;SDS011;10556;-33.662;151.094;2023-02-02T03:24:40;4.28;;;3.10;;
20792;SDS011;10556;-33.662;151.094;2023-02-02T03:29:42;5.03;;;2.83;;
20792;SDS011;10556;-33.662;151.094;2023-02-02T03:34:45;2.58;;;2.38;;
20792;SDS011;10556;-33.662;151.094;2023-02-02T03:39:46;3.17;;;2.53;;
20792;SDS011;10556;-33.662;151.094;2023-02-02T03:44:47;3.17;;;2.88;;
20792;SDS011;10556;-33.662;151.094;2023-02-02T03:49:50;6.13;;;2.63;;
20792;SDS011;10556;-33.662;151.094;2023-02-02T03:54:52;5.55;;;2.63;;
20792;SDS011;10556;-33.662;151.094;2023-02-02T03:59:53;2.30;;;2.10;;
20792;SDS011;10556;-33.662;151.094;2023-02-02T04:04:56;3.05;;;2.72;;
20792;SDS011;10556;-33.662;151.094;2023-02-02T04:09:57;2.85;;;2.60;;
20792;SDS011;10556;-33.662;151.094;2023-02-02T04:14:58;2.78;;;2.50;;
20792;SDS011;10556;-33.662;151.094;2023-02-02T04:20:02;3.60;;;2.58;;
20792;SDS011;10556;-33.662;151.094;2023-02-02T04:25:03;2.72;;;2.30;;
20792;SDS011;10556;-33.662;151.094;2023-02-02T04:30:04;2.53;;;2.17;;
20792;SDS011;10556;-33.662;151.094;2023-02-02T04:35:08;3.85;;;2.58;;
20792;SDS011;10556;-33.662;151.094;2023-02-02T04:40:10;2.58;;;2.00;;
20792;SDS011;10556;-33.662;151.094;2023-02-02T04:45:11;2.60;;;2.40;;
20792;SDS011;10556;-33.662;151.094;2023-02-02T04:50:14;2.13;;;1.92;;
20792;SDS011;10556;-33.662;151.094;2023-02-02T04:55:15;2.30;;;1.92;;
20792;SDS011;10556;-33.662;151.094;2023-02-02T05:00:17;1.88;;;1.52;;
20792;SDS011;10556;-33.662;151.094;2023-02-02T05:05:20;1.90;;;1.35;;
20792;SDS011;10556;-33.662;151.094;2023-02-02T05:10:21;1.13;;;1.00;;
20792;SDS011;10556;-33.662;151.094;2023-02-02T05:15:22;3.08;;;0.80;;
20792;SDS011;10556;-33.662;151.094;2023-02-02T05:20:25;1.38;;;0.95;;
20792;SDS011;10556;-33.662;151.094;2023-02-02T05:25:27;2.58;;;1.20;;
20792;SDS011;10556;-33.662;151.094;2023-02-02T05:30:28;4.80;;;0.90;;
20792;SDS011;10556;-33.662;151.094;2023-02-02T05:35:31;6.55;;;1.30;;
20792;SDS011;10556;-33.662;151.094;2023-02-02T05:40:32;1.05;;;0.70;;
20792;SDS011;10556;-33.662;151.094;2023-02-02T05:45:33;2.47;;;1.00;;
20792;SDS011;10556;-33.662;151.094;2023-02-02T05:50:36;1.95;;;0.90;;
20792;SDS011;10556;-33.662;151.094;2023-02-02T05:55:38;1.67;;;0.80;;
20792;SDS011;10556;-33.662;151.094;2023-02-02T06:00:39;1.10;;;0.75;;
20792;SDS011;10556;-33.662;151.094;2023-02-02T06:05:42;0.75;;;0.50;;
20792;SDS011;10556;-33.662;151.094;2023-02-02T06:10:43;0.40;;;0.40;;
20792;SDS011;10556;-33.662;151.094;2023-02-02T06:15:44;1.83;;;0.70;;
20792;SDS011;10556;-33.662;151.094;2023-02-02T06:20:47;0.73;;;0.50;;
20792;SDS011;10556;-33.662;151.094;2023-02-02T06:25:49;2.08;;;0.60;;
20792;SDS011;10556;-33.662;151.094;2023-02-02T06:30:50;1.00;;;0.43;;
20792;SDS011;10556;-33.662;151.094;2023-02-02T06:35:53;0.55;;;0.50;;
20792;SDS011;10556;-33.662;151.094;2023-02-02T06:40:58;0.65;;;0.40;;
20792;SDS011;10556;-33.662;151.094;2023-02-02T06:45:59;1.23;;;0.90;;
20792;SDS011;10556;-33.662;151.094;2023-02-02T06:51:02;0.52;;;0.43;;
20792;SDS011;10556;-33.662;151.094;2023-02-02T06:56:04;1.17;;;0.70;;
20792;SDS011;10556;-33.662;151.094;2023-02-02T07:01:06;0.60;;;0.50;;
20792;SDS011;10556;-33.662;151.094;2023-02-02T07:06:13;0.65;;;0.60;;
20792;SDS011;10556;-33.662;151.094;2023-02-02T07:11:15;1.33;;;0.70;;
20792;SDS011;10556;-33.662;151.094;2023-02-02T07:16:16;1.25;;;0.70;;
20792;SDS011;10556;-33.662;151.094;2023-02-02T07:21:20;1.38;;;1.25;;
20792;SDS011;10556;-33.662;151.094;2023-02-02T07:26:21;1.02;;;0.70;;
20792;SDS011;10556;-33.662;151.094;2023-02-02T07:31:23;0.98;;;0.80;;
20792;SDS011;10556;-33.662;151.094;2023-02-02T07:36:26;1.15;;;0.80;;
20792;SDS011;10556;-33.662;151.094;2023-02-02T07:41:28;0.98;;;0.52;;
20792;SDS011;10556;-33.662;151.094;2023-02-02T07:46:29;0.70;;;0.52;;
20792;SDS011;10556;-33.662;151.094;2023-02-02T07:51:32;2.15;;;0.60;;
20792;SDS011;10556;-33.662;151.094;2023-02-02T07:56:34;1.52;;;0.80;;
20792;SDS011;10556;-33.662;151.094;2023-02-02T08:01:35;1.85;;;0.70;;
20792;SDS011;10556;-33.662;151.094;2023-02-02T08:06:38;2.38;;;0.60;;
20792;SDS011;10556;-33.662;151.094;2023-02-02T08:11:39;1.83;;;0.70;;
20792;SDS011;10556;-33.662;151.094;2023-02-02T08:16:41;0.50;;;0.40;;
20792;SDS011;10556;-33.662;151.094;2023-02-02T08:21:44;0.90;;;0.50;;
20792;SDS011;10556;-33.662;151.094;2023-02-02T08:26:45;1.02;;;0.65;;
20792;SDS011;10556;-33.662;151.094;2023-02-02T08:31:46;0.75;;;0.50;;
20792;SDS011;10556;-33.662;151.094;2023-02-02T08:36:49;1.63;;;0.70;;
20792;SDS011;10556;-33.662;151.094;2023-02-02T08:41:50;3.90;;;0.65;;
20792;SDS011;10556;-33.662;151.094;2023-02-02T08:46:54;0.43;;;0.40;;
20792;SDS011;10556;-33.662;151.094;2023-02-02T08:51:57;0.63;;;0.60;;
20792;SDS011;10556;-33.662;151.094;2023-02-02T08:56:58;2.33;;;0.50;;
20792;SDS011;10556;-33.662;151.094;2023-02-02T09:01:59;0.90;;;0.60;;
20792;SDS011;10556;-33.662;151.094;2023-02-02T09:07:02;0.98;;;0.32;;
20792;SDS011;10556;-33.662;151.094;2023-02-02T09:12:04;0.75;;;0.40;;
20792;SDS011;10556;-33.662;151.094;2023-02-02T09:17:05;0.80;;;0.50;;
20792;SDS011;10556;-33.662;151.094;2023-02-02T09:22:08;0.50;;;0.40;;
20792;SDS011;10556;-33.662;151.094;2023-02-02T09:27:09;0.40;;;0.40;;
20792;SDS011;10556;-33.662;151.094;2023-02-02T09:32:11;0.90;;;0.50;;
20792;SDS011;10556;-33.662;151.094;2023-02-02T09:37:14;0.38;;;0.32;;
20792;SDS011;10556;-33.662;151.094;2023-02-02T09:42:28;0.65;;;0.40;;
20792;SDS011;10556;-33.662;151.094;2023-02-02T09:47:40;0.73;;;0.50;;
20792;SDS011;10556;-33.662;151.094;2023-02-02T09:52:50;0.52;;;0.40;;
20792;SDS011;10556;-33.662;151.094;2023-02-02T09:57:54;0.55;;;0.30;;
20792;SDS011;10556;-33.662;151.094;2023-02-02T10:02:58;2.33;;;0.77;;
20792;SDS011;10556;-33.662;151.094;2023-02-02T10:08:04;3.20;;;1.63;;
20792;SDS011;10556;-33.662;151.094;2023-02-02T10:13:09;4.75;;;1.10;;
20792;SDS011;10556;-33.662;151.094;2023-02-02T10:18:14;4.30;;;1.35;;
20792;SDS011;10556;-33.662;151.094;2023-02-02T10:23:22;4.78;;;1.17;;
20792;SDS011;10556;-33.662;151.094;2023-02-02T10:28:38;1.70;;;1.10;;
20792;SDS011;10556;-33.662;151.094;2023-02-02T10:33:41;4.50;;;1.27;;
20792;SDS011;10556;-33.662;151.094;2023-02-02T10:38:50;8.73;;;1.92;;
20792;SDS011;10556;-33.662;151.094;2023-02-02T10:43:57;5.10;;;1.30;;
20792;SDS011;10556;-33.662;151.094;2023-02-02T10:49:08;3.78;;;1.55;;
20792;SDS011;10556;-33.662;151.094;2023-02-02T10:54:19;4.05;;;1.42;;
20792;SDS011;10556;-33.662;151.094;2023-02-02T10:59:23;2.47;;;1.27;;
20792;SDS011;10556;-33.662;151.094;2023-02-02T11:04:27;9.88;;;1.90;;
20792;SDS011;10556;-33.662;151.094;2023-02-02T11:09:31;2.83;;;1.23;;
20792;SDS011;10556;-33.662;151.094;2023-02-02T11:14:35;6.72;;;2.05;;
20792;SDS011;10556;-33.662;151.094;2023-02-02T11:19:39;3.83;;;1.30;;
20792;SDS011;10556;-33.662;151.094;2023-02-02T11:24:43;3.67;;;1.45;;
20792;SDS011;10556;-33.662;151.094;2023-02-02T11:29:45;2.20;;;1.20;;
20792;SDS011;10556;-33.662;151.094;2023-02-02T11:34:47;3.63;;;1.73;;
20792;SDS011;10556;-33.662;151.094;2023-02-02T11:39:50;7.57;;;2.50;;
20792;SDS011;10556;-33.662;151.094;2023-02-02T11:44:52;5.30;;;1.67;;
20792;SDS011;10556;-33.662;151.094;2023-02-02T11:49:54;3.17;;;1.20;;
20792;SDS011;10556;-33.662;151.094;2023-02-02T11:54:57;3.80;;;1.90;;
20792;SDS011;10556;-33.662;151.094;2023-02-02T12:00:06;5.77;;;1.50;;
20792;SDS011;10556;-33.662;151.094;2023-02-02T12:10:33;4.70;;;1.67;;
20792;SDS011;10556;-33.662;151.094;2023-02-02T12:15:39;6.63;;;2.10;;
20792;SDS011;10556;-33.662;151.094;2023-02-02T12:20:45;6.00;;;1.90;;
20792;SDS011;10556;-33.662;151.094;2023-02-02T12:25:57;5.33;;;2.13;;
20792;SDS011;10556;-33.662;151.094;2023-02-02T12:31:02;3.87;;;1.20;;
20792;SDS011;10556;-33.662;151.094;2023-02-02T12:36:17;5.70;;;1.43;;
20792;SDS011;10556;-33.662;151.094;2023-02-02T12:41:25;6.47;;;1.27;;
20792;SDS011;10556;-33.662;151.094;2023-02-02T12:46:35;1.33;;;0.87;;
20792;SDS011;10556;-33.662;151.094;2023-02-02T12:51:47;3.30;;;1.10;;
20792;SDS011;10556;-33.662;151.094;2023-02-02T12:56:53;1.40;;;1.10;;
20792;SDS011;10556;-33.662;151.094;2023-02-02T13:02:00;1.50;;;0.87;;
20792;SDS011;10556;-33.662;151.094;2023-02-02T13:07:15;2.53;;;1.10;;
20792;SDS011;10556;-33.662;151.094;2023-02-02T13:12:22;2.23;;;0.90;;
20792;SDS011;10556;-33.662;151.094;2023-02-02T13:17:25;0.73;;;0.50;;
20792;SDS011;10556;-33.662;151.094;2023-02-02T13:22:31;0.93;;;0.60;;
20792;SDS011;10556;-33.662;151.094;2023-02-02T13:27:35;0.40;;;0.30;;
20792;SDS011;10556;-33.662;151.094;2023-02-02T13:32:38;0.87;;;0.33;;
20792;SDS011;10556;-33.662;151.094;2023-02-02T13:37:43;0.67;;;0.47;;
20792;SDS011;10556;-33.662;151.094;2023-02-02T13:42:50;0.20;;;0.20;;
20792;SDS011;10556;-33.662;151.094;2023-02-02T13:47:55;0.10;;;0.10;;
20792;SDS011;10556;-33.662;151.094;2023-02-02T13:53:03;0.10;;;0.10;;
20792;SDS011;10556;-33.662;151.094;2023-02-02T13:58:16;0.53;;;0.20;;
20792;SDS011;10556;-33.662;151.094;2023-02-02T14:03:24;0.60;;;0.27;;
20792;SDS011;10556;-33.662;151.094;2023-02-02T14:08:27;0.73;;;0.37;;
20792;SDS011;10556;-33.662;151.094;2023-02-02T14:13:33;0.10;;;0.10;;
20792;SDS011;10556;-33.662;151.094;2023-02-02T14:24:00;0.20;;;0.20;;
20792;SDS011;10556;-33.662;151.094;2023-02-02T14:29:08;0.30;;;0.20;;
20792;SDS011;10556;-33.662;151.094;2023-02-02T14:34:26;1.07;;;0.30;;
20792;SDS011;10556;-33.662;151.094;2023-02-02T14:39:28;0.90;;;0.20;;
20792;SDS011;10556;-33.662;151.094;2023-02-02T14:44:31;0.83;;;0.40;;
20792;SDS011;10556;-33.662;151.094;2023-02-02T14:49:32;0.50;;;0.30;;
20792;SDS011;10556;-33.662;151.094;2023-02-02T14:54:35;0.10;;;0.10;;
20792;SDS011;10556;-33.662;151.094;2023-02-02T14:59:39;0.10;;;0.10;;
20792;SDS011;10556;-33.662;151.094;2023-02-02T15:04:40;0.20;;;0.20;;
20792;SDS011;10556;-33.662;151.094;2023-02-02T15:09:41;0.27;;;0.20;;
20792;SDS011;10556;-33.662;151.094;2023-02-02T15:14:46;0.13;;;0.13;;
20792;SDS011;10556;-33.662;151.094;2023-02-02T15:19:50;0.67;;;0.20;;
20792;SDS011;10556;-33.662;151.094;2023-02-02T15:24:53;0.20;;;0.20;;
20792;SDS011;10556;-33.662;151.094;2023-02-02T15:29:57;0.30;;;0.30;;
20792;SDS011;10556;-33.662;151.094;2023-02-02T15:35:02;0.10;;;0.10;;
20792;SDS011;10556;-33.662;151.094;2023-02-02T15:40:09;0.20;;;0.20;;
20792;SDS011;10556;-33.662;151.094;2023-02-02T15:50:29;1.20;;;0.20;;
20792;SDS011;10556;-33.662;151.094;2023-02-02T15:55:32;0.50;;;0.30;;
20792;SDS011;10556;-33.662;151.094;2023-02-02T16:00:34;0.30;;;0.27;;
20792;SDS011;10556;-33.662;151.094;2023-02-02T16:05:44;0.63;;;0.17;;
20792;SDS011;10556;-33.662;151.094;2023-02-02T16:10:46;0.60;;;0.27;;
20792;SDS011;10556;-33.662;151.094;2023-02-02T16:15:53;0.40;;;0.10;;
20792;SDS011;10556;-33.662;151.094;2023-02-02T16:20:56;0.43;;;0.23;;
20792;SDS011;10556;-33.662;151.094;2023-02-02T16:25:59;0.20;;;0.20;;
20792;SDS011;10556;-33.662;151.094;2023-02-02T16:31:01;0.30;;;0.23;;
20792;SDS011;10556;-33.662;151.094;2023-02-02T16:36:14;0.30;;;0.30;;
20792;SDS011;10556;-33.662;151.094;2023-02-02T16:41:24;1.10;;;0.23;;
20792;SDS011;10556;-33.662;151.094;2023-02-02T16:46:40;0.70;;;0.40;;
20792;SDS011;10556;-33.662;151.094;2023-02-02T16:51:45;1.50;;;0.20;;
20792;SDS011;10556;-33.662;151.094;2023-02-02T16:56:49;0.60;;;0.30;;
20792;SDS011;10556;-33.662;151.094;2023-02-02T17:01:55;1.90;;;0.37;;
20792;SDS011;10556;-33.662;151.094;2023-02-02T17:07:05;0.63;;;0.17;;
20792;SDS011;10556;-33.662;151.094;2023-02-02T17:12:21;0.50;;;0.30;;
20792;SDS011;10556;-33.662;151.094;2023-02-02T17:17:23;0.63;;;0.20;;
20792;SDS011;10556;-33.662;151.094;2023-02-02T17:22:26;0.20;;;0.13;;
20792;SDS011;10556;-33.662;151.094;2023-02-02T17:27:29;1.00;;;0.20;;
20792;SDS011;10556;-33.662;151.094;2023-02-02T17:32:31;0.20;;;0.20;;
20792;SDS011;10556;-33.662;151.094;2023-02-02T17:37:34;0.50;;;0.20;;
20792;SDS011;10556;-33.662;151.094;2023-02-02T17:42:35;0.37;;;0.30;;
20792;SDS011;10556;-33.662;151.094;2023-02-02T17:47:36;0.57;;;0.20;;
20792;SDS011;10556;-33.662;151.094;2023-02-02T17:52:39;0.30;;;0.23;;
20792;SDS011;10556;-33.662;151.094;2023-02-02T17:57:40;1.77;;;0.20;;
20792;SDS011;10556;-33.662;151.094;2023-02-02T18:02:42;1.03;;;0.20;;
20792;SDS011;10556;-33.662;151.094;2023-02-02T18:07:45;1.03;;;0.27;;
20792;SDS011;10556;-33.662;151.094;2023-02-02T18:12:46;0.87;;;0.77;;
20792;SDS011;10556;-33.662;151.094;2023-02-02T18:17:47;0.60;;;0.10;;
20792;SDS011;10556;-33.662;151.094;2023-02-02T18:22:51;1.63;;;0.10;;
20792;SDS011;10556;-33.662;151.094;2023-02-02T18:27:52;0.33;;;0.20;;
20792;SDS011;10556;-33.662;151.094;2023-02-02T18:32:53;0.43;;;0.20;;
20792;SDS011;10556;-33.662;151.094;2023-02-02T18:37:57;3.03;;;0.30;;
20792;SDS011;10556;-33.662;151.094;2023-02-02T18:42:58;0.20;;;0.20;;
20792;SDS011;10556;-33.662;151.094;2023-02-02T18:47:59;2.77;;;0.27;;
20792;SDS011;10556;-33.662;151.094;2023-02-02T18:53:02;0.73;;;0.20;;
20792;SDS011;10556;-33.662;151.094;2023-02-02T18:58:03;0.73;;;0.30;;
20792;SDS011;10556;-33.662;151.094;2023-02-02T19:03:04;1.20;;;0.40;;
20792;SDS011;10556;-33.662;151.094;2023-02-02T19:08:08;0.80;;;0.20;;
20792;SDS011;10556;-33.662;151.094;2023-02-02T19:13:12;1.93;;;0.33;;
20792;SDS011;10556;-33.662;151.094;2023-02-02T19:18:14;0.93;;;0.30;;
20792;SDS011;10556;-33.662;151.094;2023-02-02T19:23:18;5.37;;;0.20;;
20792;SDS011;10556;-33.662;151.094;2023-02-02T19:28:20;2.03;;;0.30;;
20792;SDS011;10556;-33.662;151.094;2023-02-02T19:33:21;1.10;;;0.30;;
20792;SDS011;10556;-33.662;151.094;2023-02-02T19:38:28;0.63;;;0.30;;
20792;SDS011;10556;-33.662;151.094;2023-02-02T19:43:29;2.37;;;0.20;;
20792;SDS011;10556;-33.662;151.094;2023-02-02T19:48:32;2.03;;;0.20;;
20792;SDS011;10556;-33.662;151.094;2023-02-02T19:53:36;0.67;;;0.10;;
20792;SDS011;10556;-33.662;151.094;2023-02-02T19:58:38;0.73;;;0.30;;
20792;SDS011;10556;-33.662;151.094;2023-02-02T20:03:39;2.50;;;0.20;;
20792;SDS011;10556;-33.662;151.094;2023-02-02T20:08:43;1.83;;;0.40;;
20792;SDS011;10556;-33.662;151.094;2023-02-02T20:13:44;1.57;;;0.27;;
20792;SDS011;10556;-33.662;151.094;2023-02-02T20:18:46;1.73;;;0.20;;
20792;SDS011;10556;-33.662;151.094;2023-02-02T20:23:50;1.87;;;0.40;;
20792;SDS011;10556;-33.662;151.094;2023-02-02T20:28:51;0.77;;;0.30;;
20792;SDS011;10556;-33.662;151.094;2023-02-02T20:33:53;0.60;;;0.20;;
20792;SDS011;10556;-33.662;151.094;2023-02-02T20:38:56;1.37;;;0.20;;
20792;SDS011;10556;-33.662;151.094;2023-02-02T20:43:58;0.37;;;0.37;;
20792;SDS011;10556;-33.662;151.094;2023-02-02T20:48:59;0.83;;;0.20;;
20792;SDS011;10556;-33.662;151.094;2023-02-02T20:54:03;1.57;;;0.30;;
20792;SDS011;10556;-33.662;151.094;2023-02-02T20:59:04;1.00;;;0.30;;
20792;SDS011;10556;-33.662;151.094;2023-02-02T21:04:05;0.57;;;0.20;;
20792;SDS011;10556;-33.662;151.094;2023-02-02T21:09:08;1.63;;;0.33;;
20792;SDS011;10556;-33.662;151.094;2023-02-02T21:14:10;1.10;;;0.30;;
20792;SDS011;10556;-33.662;151.094;2023-02-02T21:19:11;0.30;;;0.20;;
20792;SDS011;10556;-33.662;151.094;2023-02-02T21:24:14;0.70;;;0.20;;
20792;SDS011;10556;-33.662;151.094;2023-02-02T21:29:16;2.10;;;0.20;;
20792;SDS011;10556;-33.662;151.094;2023-02-02T21:34:17;0.80;;;0.20;;
20792;SDS011;10556;-33.662;151.094;2023-02-02T21:39:20;1.20;;;0.20;;
20792;SDS011;10556;-33.662;151.094;2023-02-02T21:44:22;1.50;;;0.40;;
20792;SDS011;10556;-33.662;151.094;2023-02-02T21:49:24;3.37;;;0.63;;
20792;SDS011;10556;-33.662;151.094;2023-02-02T21:54:27;0.80;;;0.20;;
20792;SDS011;10556;-33.662;151.094;2023-02-02T21:59:31;0.47;;;0.30;;
20792;SDS011;10556;-33.662;151.094;2023-02-02T22:04:33;1.20;;;0.20;;
20792;SDS011;10556;-33.662;151.094;2023-02-02T22:09:39;0.80;;;0.23;;
20792;SDS011;10556;-33.662;151.094;2023-02-02T22:14:41;1.00;;;0.20;;
20792;SDS011;10556;-33.662;151.094;2023-02-02T22:19:43;0.53;;;0.20;;
20792;SDS011;10556;-33.662;151.094;2023-02-02T22:24:47;1.50;;;0.50;;
20792;SDS011;10556;-33.662;151.094;2023-02-02T22:29:51;0.90;;;0.30;;
20792;SDS011;10556;-33.662;151.094;2023-02-02T22:34:54;0.93;;;0.30;;
20792;SDS011;10556;-33.662;151.094;2023-02-02T22:39:57;0.83;;;0.40;;
20792;SDS011;10556;-33.662;151.094;2023-02-02T22:44:58;1.90;;;0.23;;
20792;SDS011;10556;-33.662;151.094;2023-02-02T22:49:59;2.10;;;0.30;;
20792;SDS011;10556;-33.662;151.094;2023-02-02T22:55:03;1.23;;;0.20;;
20792;SDS011;10556;-33.662;151.094;2023-02-02T23:00:05;1.60;;;0.30;;
20792;SDS011;10556;-33.662;151.094;2023-02-02T23:05:07;0.67;;;0.10;;
20792;SDS011;10556;-33.662;151.094;2023-02-02T23:10:11;1.47;;;0.30;;
20792;SDS011;10556;-33.662;151.094;2023-02-02T23:15:13;0.20;;;0.20;;
20792;SDS011;10556;-33.662;151.094;2023-02-02T23:20:14;1.60;;;0.30;;
20792;SDS011;10556;-33.662;151.094;2023-02-02T23:25:18;2.87;;;0.20;;
20792;SDS011;10556;-33.662;151.094;2023-02-02T23:30:19;0.73;;;0.30;;
20792;SDS011;10556;-33.662;151.094;2023-02-02T23:35:20;1.53;;;0.40;;
20792;SDS011;10556;-33.662;151.094;2023-02-02T23:40:24;7.30;;;0.83;;
20792;SDS011;10556;-33.662;151.094;2023-02-02T23:45:25;1.83;;;0.30;;
20792;SDS011;10556;-33.662;151.094;2023-02-02T23:50:26;1.80;;;0.47;;
20792;SDS011;10556;-33.662;151.094;2023-02-02T23:55:29;0.93;;;0.30;;
